Time;durP1;ratioP1;P1;durP2;ratioP2;P2;SDS_P1;SDS_P2;PMS_P1;PMS_P2;Temp;Humidity;BMP_temperature;BMP_pressure;BME280_temperature;BME280_humidity;BME280_pressure;Samples;Min_cycle;Max_cycle;Signal;HPM_P1;HPM_P2
2023/10/22 00:00:20;;;;;;;7.53;5.80;;;14.20;99.90;;;;;;5051723;28;20194;-56
2023/10/22 00:02:45;;;;;;;8.00;6.67;;;14.20;99.90;;;;;;5047022;28;20294;-55
2023/10/22 00:05:11;;;;;;;7.07;5.70;;;14.20;99.90;;;;;;5051357;28;20581;-55
2023/10/22 00:07:37;;;;;;;8.33;6.97;;;14.20;99.90;;;;;;5053705;28;20213;-56
2023/10/22 00:10:03;;;;;;;7.50;5.97;;;14.20;99.90;;;;;;5030397;28;20222;-56
2023/10/22 00:12:28;;;;;;;6.30;5.00;;;14.20;99.90;;;;;;5050994;28;20259;-57
2023/10/22 00:14:54;;;;;;;6.77;6.00;;;14.20;99.90;;;;;;5051141;28;20206;-55
2023/10/22 00:17:19;;;;;;;8.20;6.63;;;14.20;99.90;;;;;;5053641;28;20234;-55
2023/10/22 00:19:45;;;;;;;9.30;6.57;;;14.20;99.90;;;;;;5041226;28;20712;-55
2023/10/22 00:22:12;;;;;;;8.23;6.40;;;14.20;99.90;;;;;;5057180;28;20201;-55
2023/10/22 00:24:37;;;;;;;8.27;5.97;;;14.20;99.90;;;;;;5045030;28;20719;-56
2023/10/22 00:27:04;;;;;;;11.47;7.03;;;14.20;99.90;;;;;;5053060;28;20233;-55
2023/10/22 00:29:29;;;;;;;7.33;6.53;;;14.20;99.90;;;;;;5057727;28;20210;-55
2023/10/22 00:31:55;;;;;;;9.20;6.00;;;14.20;99.90;;;;;;5055496;28;20212;-55
2023/10/22 00:34:21;;;;;;;7.10;6.03;;;14.20;99.90;;;;;;5052939;28;20557;-55
2023/10/22 00:36:46;;;;;;;10.60;6.63;;;14.20;99.90;;;;;;5058718;28;20196;-55
2023/10/22 00:39:11;;;;;;;10.50;5.97;;;14.20;99.90;;;;;;5063308;28;20205;-55
2023/10/22 00:41:37;;;;;;;7.63;6.30;;;14.20;99.90;;;;;;5059909;28;20247;-55
2023/10/22 00:44:02;;;;;;;7.40;6.17;;;14.10;99.90;;;;;;5054580;28;20280;-56
2023/10/22 00:46:28;;;;;;;6.93;6.13;;;14.10;99.90;;;;;;5052784;28;20197;-56
2023/10/22 00:48:55;;;;;;;11.33;5.77;;;14.10;99.90;;;;;;5058262;28;20295;-56
2023/10/22 00:51:21;;;;;;;6.87;5.10;;;14.00;99.90;;;;;;5054636;28;20283;-57
2023/10/22 00:53:47;;;;;;;5.67;5.10;;;14.00;99.90;;;;;;5036126;28;20288;-56
2023/10/22 00:56:13;;;;;;;5.23;4.70;;;13.90;99.90;;;;;;5059512;28;20251;-58
2023/10/22 00:58:40;;;;;;;6.00;5.20;;;13.80;99.90;;;;;;5058819;28;20933;-56
2023/10/22 01:01:07;;;;;;;5.40;4.90;;;13.70;99.90;;;;;;5043721;28;20209;-57
2023/10/22 01:03:37;;;;;;;4.10;3.67;;;13.80;99.90;;;;;;5048755;28;20209;-66
2023/10/22 01:06:06;;;;;;;6.17;5.50;;;13.80;99.90;;;;;;5038569;28;20251;-56
2023/10/22 01:08:33;;;;;;;7.67;5.37;;;13.80;99.90;;;;;;5051852;28;20201;-54
2023/10/22 01:11:07;;;;;;;5.03;4.40;;;13.90;99.90;;;;;;5053821;28;20212;-68
2023/10/22 01:13:33;;;;;;;5.50;5.00;;;13.90;99.90;;;;;;5057610;28;20192;-57
2023/10/22 01:15:59;;;;;;;7.20;5.33;;;13.90;99.90;;;;;;5053045;28;20201;-59
2023/10/22 01:18:24;;;;;;;5.93;5.33;;;13.90;99.90;;;;;;5017968;28;20586;-55
2023/10/22 01:20:50;;;;;;;5.83;4.67;;;13.90;99.90;;;;;;5032740;28;20273;-54
2023/10/22 01:23:16;;;;;;;5.00;4.60;;;13.90;99.90;;;;;;5031191;28;20827;-55
2023/10/22 01:25:41;;;;;;;6.13;4.37;;;13.90;99.90;;;;;;5031156;28;20730;-55
2023/10/22 01:28:07;;;;;;;4.63;4.23;;;13.90;99.90;;;;;;5030643;28;20197;-55
2023/10/22 01:30:32;;;;;;;4.70;4.20;;;13.90;99.90;;;;;;5030527;28;20221;-55
2023/10/22 01:32:58;;;;;;;4.80;4.40;;;13.80;99.90;;;;;;5032015;28;20288;-55
2023/10/22 01:35:23;;;;;;;4.60;4.27;;;13.80;99.90;;;;;;5026299;28;20199;-55
2023/10/22 01:37:49;;;;;;;3.70;3.40;;;13.80;99.90;;;;;;5030516;28;20654;-55
2023/10/22 01:40:14;;;;;;;5.43;4.17;;;13.80;99.90;;;;;;5030271;28;20746;-56
2023/10/22 01:42:40;;;;;;;6.10;4.03;;;13.80;99.90;;;;;;5030418;28;20225;-55
2023/10/22 01:45:06;;;;;;;4.43;4.07;;;13.80;99.90;;;;;;5026482;28;20949;-55
2023/10/22 01:47:32;;;;;;;5.43;4.23;;;13.80;99.90;;;;;;5031947;28;20614;-56
2023/10/22 01:49:58;;;;;;;4.17;3.77;;;13.70;99.90;;;;;;5030584;28;20218;-57
2023/10/22 01:52:23;;;;;;;6.20;4.90;;;13.70;99.90;;;;;;5030113;28;20290;-56
2023/10/22 01:54:52;;;;;;;4.47;4.03;;;13.70;99.90;;;;;;5030731;28;20209;-56
2023/10/22 01:57:18;;;;;;;4.83;4.30;;;13.80;99.90;;;;;;5030480;28;20207;-56
2023/10/22 01:59:43;;;;;;;4.73;3.80;;;13.80;99.90;;;;;;5030637;28;20201;-56
2023/10/22 02:02:09;;;;;;;3.97;3.57;;;13.80;99.90;;;;;;5011929;28;20205;-55
2023/10/22 02:04:34;;;;;;;3.83;3.53;;;13.70;99.90;;;;;;5026504;28;20195;-56
2023/10/22 02:07:00;;;;;;;3.63;3.43;;;13.70;99.90;;;;;;5018074;28;20619;-55
2023/10/22 02:09:26;;;;;;;4.13;3.70;;;13.70;99.90;;;;;;5016007;28;20244;-55
2023/10/22 02:11:53;;;;;;;3.93;3.47;;;13.70;99.90;;;;;;5033391;28;20298;-55
2023/10/22 02:14:19;;;;;;;4.67;4.07;;;13.70;99.90;;;;;;5015739;28;20275;-56
2023/10/22 02:16:45;;;;;;;4.93;4.43;;;13.70;99.90;;;;;;5033518;28;20934;-56
2023/10/22 02:19:10;;;;;;;4.97;4.13;;;13.70;99.90;;;;;;5032267;28;20253;-56
2023/10/22 02:21:36;;;;;;;4.13;3.73;;;13.70;99.90;;;;;;5033855;28;20561;-56
2023/10/22 02:24:01;;;;;;;4.47;3.97;;;13.70;99.90;;;;;;5035981;28;20305;-56
2023/10/22 02:26:27;;;;;;;3.73;3.43;;;13.70;99.90;;;;;;5034000;28;20230;-55
2023/10/22 02:28:52;;;;;;;6.03;3.80;;;13.80;99.90;;;;;;5031233;28;20223;-56
2023/10/22 02:31:18;;;;;;;3.30;3.00;;;13.80;99.90;;;;;;5031618;28;20232;-56
2023/10/22 02:33:43;;;;;;;3.20;2.20;;;13.90;99.90;;;;;;5033223;28;20208;-64
2023/10/22 02:36:10;;;;;;;2.90;2.60;;;13.90;99.90;;;;;;5033538;28;20616;-57
2023/10/22 02:38:39;;;;;;;3.00;2.70;;;13.90;99.90;;;;;;5027434;28;20198;-56
2023/10/22 02:41:05;;;;;;;3.07;2.60;;;13.90;99.90;;;;;;5034912;28;20450;-56
2023/10/22 02:43:31;;;;;;;2.70;2.30;;;14.00;99.90;;;;;;5032405;28;20237;-56
2023/10/22 02:45:57;;;;;;;3.30;2.13;;;14.00;99.90;;;;;;5029150;28;20191;-56
2023/10/22 02:48:23;;;;;;;2.27;2.07;;;14.00;99.90;;;;;;5031543;28;20275;-57
2023/10/22 02:50:49;;;;;;;2.47;2.27;;;13.90;99.90;;;;;;5029061;28;20213;-56
2023/10/22 02:53:15;;;;;;;2.33;2.10;;;13.90;99.90;;;;;;5033941;28;20236;-56
2023/10/22 02:55:40;;;;;;;2.73;2.53;;;13.90;99.90;;;;;;5034175;28;20198;-56
2023/10/22 02:58:06;;;;;;;2.67;2.30;;;13.90;99.90;;;;;;5033680;28;20626;-55
2023/10/22 03:00:35;;;;;;;4.07;2.70;;;13.90;99.90;;;;;;5033520;28;20213;-55
2023/10/22 03:03:02;;;;;;;3.87;2.63;;;13.90;99.90;;;;;;5029140;28;20213;-55
2023/10/22 03:05:31;;;;;;;2.40;2.23;;;13.80;99.90;;;;;;5033095;28;20203;-55
2023/10/22 03:07:56;;;;;;;2.67;2.47;;;13.70;99.90;;;;;;5032923;28;20195;-55
2023/10/22 03:10:21;;;;;;;2.53;2.33;;;13.70;99.90;;;;;;5032940;28;20225;-55
2023/10/22 03:12:47;;;;;;;2.63;2.43;;;13.70;99.90;;;;;;5034765;28;20273;-55
2023/10/22 03:15:12;;;;;;;3.87;2.90;;;13.70;99.90;;;;;;5032737;28;20218;-55
2023/10/22 03:17:38;;;;;;;2.50;2.30;;;13.70;99.90;;;;;;5038889;28;20745;-55
2023/10/22 03:20:05;;;;;;;3.17;2.63;;;13.70;99.90;;;;;;5051838;28;20206;-55
2023/10/22 03:22:30;;;;;;;4.33;3.10;;;13.70;99.90;;;;;;5052459;28;20235;-55
2023/10/22 03:24:56;;;;;;;3.00;2.80;;;13.80;99.90;;;;;;5052850;28;20423;-55
2023/10/22 03:27:22;;;;;;;3.23;2.33;;;13.80;99.90;;;;;;5052793;28;20573;-55
2023/10/22 03:29:47;;;;;;;5.37;2.63;;;13.80;99.90;;;;;;5054264;28;20228;-54
2023/10/22 03:32:12;;;;;;;5.83;2.60;;;13.80;99.90;;;;;;5052187;28;20236;-55
2023/10/22 03:34:38;;;;;;;2.60;2.40;;;13.80;99.90;;;;;;5052515;28;20488;-55
2023/10/22 03:37:08;;;;;;;3.00;2.80;;;13.80;99.90;;;;;;5052675;28;20601;-55
2023/10/22 03:39:36;;;;;;;4.47;3.17;;;13.60;99.90;;;;;;5052177;28;20194;-56
2023/10/22 03:42:01;;;;;;;3.83;3.00;;;13.60;99.90;;;;;;5052470;28;20209;-56
2023/10/22 03:44:27;;;;;;;3.73;2.83;;;13.60;99.90;;;;;;5030057;28;20228;-56
2023/10/22 03:46:52;;;;;;;5.60;2.50;;;13.60;99.90;;;;;;5052378;28;20231;-57
2023/10/22 03:49:17;;;;;;;4.63;2.63;;;13.60;99.90;;;;;;5053708;28;20673;-56
2023/10/22 03:51:43;;;;;;;3.50;2.60;;;13.70;99.90;;;;;;5052464;28;20216;-56
2023/10/22 03:54:08;;;;;;;2.70;2.50;;;13.60;99.90;;;;;;5052222;28;20767;-56
2023/10/22 03:56:37;;;;;;;6.23;3.03;;;13.50;99.90;;;;;;5052370;28;21048;-59
2023/10/22 03:59:02;;;;;;;5.77;3.37;;;13.50;99.90;;;;;;5034018;28;20778;-56
2023/10/22 04:01:27;;;;;;;4.43;3.23;;;13.50;99.90;;;;;;5052003;28;20273;-55
2023/10/22 04:03:53;;;;;;;3.90;2.73;;;13.50;99.90;;;;;;5052110;28;20233;-55
2023/10/22 04:06:19;;;;;;;2.90;2.70;;;13.50;99.90;;;;;;5053915;28;20208;-57
2023/10/22 04:08:45;;;;;;;4.60;2.60;;;13.60;99.90;;;;;;5049248;28;20299;-56
2023/10/22 04:11:10;;;;;;;6.10;3.17;;;13.50;99.90;;;;;;5051772;28;20293;-55
2023/10/22 04:13:35;;;;;;;3.97;2.80;;;13.40;99.90;;;;;;5052168;28;20233;-64
2023/10/22 04:16:01;;;;;;;3.87;2.70;;;13.40;99.90;;;;;;5051753;28;20212;-57
2023/10/22 04:18:26;;;;;;;5.77;3.30;;;13.50;99.90;;;;;;5051784;28;20271;-57
2023/10/22 04:20:52;;;;;;;3.17;2.87;;;13.60;99.90;;;;;;5049753;28;20672;-55
2023/10/22 04:23:18;;;;;;;2.70;2.43;;;13.60;99.90;;;;;;5034111;28;20915;-56
2023/10/22 04:25:45;;;;;;;3.93;2.60;;;13.50;99.90;;;;;;5051772;28;20198;-55
2023/10/22 04:28:11;;;;;;;3.27;2.97;;;13.50;99.90;;;;;;5034018;28;20202;-55
2023/10/22 04:30:37;;;;;;;2.90;2.30;;;13.50;99.90;;;;;;5051108;28;20213;-55
2023/10/22 04:33:07;;;;;;;4.20;2.83;;;13.50;99.90;;;;;;5051460;28;20210;-55
2023/10/22 04:35:34;;;;;;;6.57;3.03;;;13.40;99.90;;;;;;5037918;28;20297;-55
2023/10/22 04:38:00;;;;;;;3.77;2.50;;;13.40;99.90;;;;;;5035350;28;20786;-55
2023/10/22 04:40:30;;;;;;;5.30;2.70;;;13.50;99.90;;;;;;5049546;28;20545;-55
2023/10/22 04:42:59;;;;;;;2.70;2.50;;;13.40;99.90;;;;;;5035138;28;20208;-55
2023/10/22 04:45:25;;;;;;;2.47;2.37;;;13.40;99.90;;;;;;5048842;28;20362;-55
2023/10/22 04:47:50;;;;;;;2.63;2.43;;;13.40;99.90;;;;;;5029750;28;20237;-55
2023/10/22 04:50:16;;;;;;;3.07;2.63;;;13.40;99.90;;;;;;5047158;28;20701;-55
2023/10/22 04:52:41;;;;;;;3.00;2.70;;;13.40;99.90;;;;;;5050795;28;20213;-55
2023/10/22 04:55:11;;;;;;;2.83;2.50;;;13.50;99.90;;;;;;5051078;28;20259;-56
2023/10/22 04:57:36;;;;;;;2.83;2.53;;;13.40;99.90;;;;;;5050979;28;20544;-55
2023/10/22 05:00:04;;;;;;;5.77;2.57;;;13.40;99.90;;;;;;5035068;28;20744;-55
2023/10/22 05:02:29;;;;;;;3.00;2.77;;;13.50;99.90;;;;;;5051961;28;20212;-55
2023/10/22 05:04:55;;;;;;;2.97;2.40;;;13.50;99.90;;;;;;5050885;28;20196;-55
2023/10/22 05:07:20;;;;;;;2.53;2.33;;;13.50;99.90;;;;;;5050576;28;20197;-55
2023/10/22 05:09:46;;;;;;;2.77;2.47;;;13.50;99.90;;;;;;5052511;28;20208;-55
2023/10/22 05:12:11;;;;;;;2.60;2.10;;;13.50;99.90;;;;;;5059745;28;20250;-56
2023/10/22 05:14:37;;;;;;;2.37;2.17;;;13.50;99.90;;;;;;5060226;28;20229;-55
2023/10/22 05:17:04;;;;;;;3.70;2.80;;;13.50;99.90;;;;;;5042525;28;20673;-56
2023/10/22 05:19:30;;;;;;;3.17;2.20;;;13.50;99.90;;;;;;5042227;28;20211;-55
2023/10/22 05:21:55;;;;;;;3.37;2.40;;;13.50;99.90;;;;;;5056804;28;20192;-56
2023/10/22 05:24:21;;;;;;;3.20;2.43;;;13.40;99.90;;;;;;5055486;28;20194;-56
2023/10/22 05:26:46;;;;;;;2.93;2.73;;;13.30;99.90;;;;;;5053178;28;21103;-55
2023/10/22 05:29:12;;;;;;;3.63;2.60;;;13.40;99.90;;;;;;5059616;28;20307;-54
2023/10/22 05:31:37;;;;;;;2.70;2.50;;;13.40;99.90;;;;;;5061351;28;20468;-55
2023/10/22 05:34:03;;;;;;;6.23;3.53;;;13.30;99.90;;;;;;5054414;28;20194;-55
2023/10/22 05:36:28;;;;;;;2.37;2.17;;;13.30;99.90;;;;;;5035388;28;20198;-55
2023/10/22 05:38:54;;;;;;;2.77;2.57;;;13.30;99.90;;;;;;5060700;28;20204;-55
2023/10/22 05:41:21;;;;;;;4.20;2.80;;;13.20;99.90;;;;;;5054735;28;20199;-55
2023/10/22 05:43:51;;;;;;;3.60;3.03;;;13.30;99.90;;;;;;5052165;28;20196;-55
2023/10/22 05:46:17;;;;;;;3.17;2.87;;;13.30;99.90;;;;;;5063528;28;20207;-54
2023/10/22 05:48:43;;;;;;;3.43;2.90;;;13.40;99.90;;;;;;5060690;28;20274;-54
2023/10/22 05:51:08;;;;;;;3.40;3.10;;;13.40;99.90;;;;;;5045172;28;20211;-54
2023/10/22 05:53:34;;;;;;;3.07;2.40;;;13.30;99.90;;;;;;5056369;28;20191;-55
2023/10/22 05:55:59;;;;;;;2.57;2.37;;;13.40;99.90;;;;;;5063835;28;20298;-56
2023/10/22 05:58:26;;;;;;;3.40;3.10;;;13.40;99.90;;;;;;5063752;28;20223;-56
2023/10/22 06:00:52;;;;;;;3.27;2.57;;;13.40;99.90;;;;;;5063982;28;20202;-56
2023/10/22 06:03:17;;;;;;;4.07;2.77;;;13.40;99.90;;;;;;5057067;28;20194;-57
2023/10/22 06:05:44;;;;;;;7.63;2.97;;;13.40;99.90;;;;;;5044880;28;20202;-55
2023/10/22 06:08:09;;;;;;;3.03;2.73;;;13.40;99.90;;;;;;5061089;28;20261;-57
2023/10/22 06:10:42;;;;;;;3.53;2.83;;;13.40;99.90;;;;;;5053505;28;20303;-55
2023/10/22 06:13:07;;;;;;;3.83;3.10;;;13.40;99.90;;;;;;5050994;28;20197;-57
2023/10/22 06:15:36;;;;;;;2.97;2.67;;;13.30;99.90;;;;;;5060181;28;20256;-56
2023/10/22 06:18:02;;;;;;;2.90;2.60;;;13.30;99.90;;;;;;5056284;28;20253;-57
2023/10/22 06:20:34;;;;;;;3.50;3.20;;;13.40;99.90;;;;;;5039611;28;20198;-62
2023/10/22 06:23:01;;;;;;;2.83;2.63;;;13.40;99.90;;;;;;5060375;28;20197;-61
2023/10/22 06:25:31;;;;;;;5.10;2.80;;;13.40;99.90;;;;;;5058510;28;20206;-55
2023/10/22 06:27:57;;;;;;;3.37;3.00;;;13.40;99.90;;;;;;5060730;28;20187;-55
2023/10/22 06:30:24;;;;;;;3.43;2.60;;;13.40;99.90;;;;;;5060120;28;20221;-55
2023/10/22 06:32:56;;;;;;;3.10;2.73;;;13.30;99.90;;;;;;5058814;28;20274;-54
2023/10/22 06:35:23;;;;;;;3.27;2.60;;;13.30;99.90;;;;;;5059448;28;20220;-56
2023/10/22 06:37:53;;;;;;;2.97;2.70;;;13.30;99.90;;;;;;5058134;28;20204;-58
2023/10/22 06:40:22;;;;;;;3.67;2.83;;;13.20;99.90;;;;;;5052836;28;20198;-58
2023/10/22 06:42:48;;;;;;;3.10;2.90;;;13.30;99.90;;;;;;5048711;28;20228;-58
2023/10/22 06:45:15;;;;;;;2.87;2.67;;;13.20;99.90;;;;;;5048741;28;20201;-58
2023/10/22 06:47:40;;;;;;;3.23;2.70;;;13.30;99.90;;;;;;5052641;28;20194;-58
2023/10/22 06:50:08;;;;;;;5.50;3.20;;;13.30;99.90;;;;;;5050456;28;20233;-60
2023/10/22 06:52:35;;;;;;;3.53;2.67;;;13.20;99.90;;;;;;5049449;28;20291;-59
2023/10/22 06:55:01;;;;;;;3.27;2.80;;;13.30;99.90;;;;;;5051544;28;20197;-64
2023/10/22 06:57:27;;;;;;;3.90;3.40;;;13.30;99.90;;;;;;5053411;28;20215;-59
2023/10/22 06:59:55;;;;;;;3.87;3.00;;;13.30;99.90;;;;;;5035770;28;20206;-64
2023/10/22 07:02:21;;;;;;;3.50;3.17;;;13.30;99.90;;;;;;5052117;28;20213;-58
2023/10/22 07:04:51;;;;;;;3.40;3.10;;;13.30;99.90;;;;;;5049109;28;20254;-58
2023/10/22 07:07:16;;;;;;;3.63;3.27;;;13.20;99.90;;;;;;5049581;28;20201;-58
2023/10/22 07:09:42;;;;;;;3.20;3.00;;;13.20;99.90;;;;;;5047334;28;20274;-59
2023/10/22 07:12:08;;;;;;;4.90;2.67;;;13.00;99.90;;;;;;5051290;28;20212;-59
2023/10/22 07:14:33;;;;;;;3.80;3.37;;;13.00;99.90;;;;;;5032148;28;20207;-58
2023/10/22 07:16:59;;;;;;;4.43;3.10;;;12.90;99.90;;;;;;5052230;28;20208;-58
2023/10/22 07:19:24;;;;;;;3.73;2.80;;;13.00;99.90;;;;;;5051603;28;20209;-62
2023/10/22 07:21:50;;;;;;;3.77;3.43;;;13.00;99.90;;;;;;5048779;28;22874;-57
2023/10/22 07:24:15;;;;;;;3.23;2.93;;;13.10;99.90;;;;;;5052443;28;20210;-59
2023/10/22 07:26:41;;;;;;;2.63;2.43;;;13.10;99.90;;;;;;5034475;28;20200;-64
2023/10/22 07:29:06;;;;;;;3.53;3.10;;;13.10;99.90;;;;;;5048247;28;20756;-65
2023/10/22 07:31:32;;;;;;;3.80;2.73;;;13.10;99.90;;;;;;5049053;28;20202;-57
2023/10/22 07:33:58;;;;;;;2.50;2.27;;;13.10;99.90;;;;;;5049590;28;20282;-56
2023/10/22 07:36:23;;;;;;;4.73;3.10;;;13.10;99.90;;;;;;5048411;28;20291;-59
2023/10/22 07:38:51;;;;;;;3.80;2.40;;;13.20;99.90;;;;;;5050494;28;20287;-65
2023/10/22 07:41:18;;;;;;;2.60;2.40;;;13.20;99.90;;;;;;5051559;28;20198;-66
2023/10/22 07:43:44;;;;;;;2.63;2.17;;;13.20;99.90;;;;;;5049959;28;20199;-64
2023/10/22 07:46:10;;;;;;;2.80;2.07;;;13.20;99.90;;;;;;5048674;28;20200;-61
2023/10/22 07:48:39;;;;;;;3.23;2.00;;;13.30;99.90;;;;;;5051677;28;20221;-61
2023/10/22 07:51:12;;;;;;;2.23;2.03;;;13.20;99.90;;;;;;5049422;28;20212;-69
2023/10/22 07:53:38;;;;;;;2.40;2.20;;;13.20;99.90;;;;;;5049030;28;20242;-58
2023/10/22 07:56:05;;;;;;;5.70;3.33;;;13.30;99.90;;;;;;5050701;28;20233;-57
2023/10/22 07:58:31;;;;;;;3.93;2.30;;;13.40;99.90;;;;;;5053041;28;20198;-57
2023/10/22 08:00:56;;;;;;;3.17;2.40;;;13.40;99.90;;;;;;5051802;28;20257;-58
2023/10/22 08:03:21;;;;;;;2.33;1.90;;;13.50;99.90;;;;;;5051010;28;20266;-58
2023/10/22 08:05:47;;;;;;;2.47;2.10;;;13.50;99.90;;;;;;5049110;28;20701;-57
2023/10/22 08:08:12;;;;;;;2.77;2.37;;;13.50;99.90;;;;;;5051053;28;20682;-58
2023/10/22 08:10:38;;;;;;;3.13;2.00;;;13.60;99.90;;;;;;5051309;28;20208;-60
2023/10/22 08:13:04;;;;;;;2.43;1.93;;;13.60;99.90;;;;;;5053231;28;20655;-57
2023/10/22 08:15:29;;;;;;;4.53;2.07;;;13.60;99.90;;;;;;5033933;28;20872;-58
2023/10/22 08:17:55;;;;;;;2.47;1.73;;;13.60;99.90;;;;;;5050172;28;20222;-57
2023/10/22 08:20:20;;;;;;;2.23;1.90;;;13.70;99.90;;;;;;5032195;28;20217;-59
2023/10/22 08:22:46;;;;;;;1.90;1.80;;;13.80;99.90;;;;;;5050832;28;20202;-60
2023/10/22 08:25:11;;;;;;;2.03;1.93;;;13.90;99.90;;;;;;5051245;28;20416;-58
2023/10/22 08:27:37;;;;;;;2.43;1.53;;;13.90;99.90;;;;;;5032914;28;20198;-58
2023/10/22 08:30:03;;;;;;;3.80;2.10;;;13.90;99.90;;;;;;5034307;28;20225;-63
2023/10/22 08:32:28;;;;;;;2.83;2.27;;;14.00;99.90;;;;;;5050714;28;20201;-61
2023/10/22 08:34:54;;;;;;;1.77;1.50;;;14.00;99.90;;;;;;5050804;28;20194;-61
2023/10/22 08:37:19;;;;;;;2.57;1.70;;;14.10;99.90;;;;;;5033313;28;20202;-62
2023/10/22 08:39:45;;;;;;;2.33;1.87;;;14.00;99.90;;;;;;5049808;28;20801;-61
2023/10/22 08:42:16;;;;;;;2.70;1.50;;;13.90;99.90;;;;;;5051100;28;20841;-61
2023/10/22 08:44:48;;;;;;;2.47;1.67;;;13.90;99.90;;;;;;5031082;28;20198;-60
2023/10/22 08:47:14;;;;;;;3.10;1.97;;;14.10;99.90;;;;;;5033031;28;20208;-61
2023/10/22 08:49:40;;;;;;;2.43;2.20;;;14.10;99.90;;;;;;5033247;28;20217;-57
2023/10/22 08:52:08;;;;;;;3.13;1.87;;;14.20;99.90;;;;;;5052382;28;20343;-58
2023/10/22 08:54:33;;;;;;;1.63;1.43;;;14.20;99.90;;;;;;5051150;28;20932;-69
2023/10/22 08:56:59;;;;;;;3.10;1.97;;;14.20;99.90;;;;;;5032873;28;20205;-58
2023/10/22 08:59:26;;;;;;;3.90;1.83;;;14.20;99.90;;;;;;5051087;28;20285;-71
2023/10/22 09:01:53;;;;;;;1.67;1.57;;;14.20;99.90;;;;;;5033133;28;20208;-66
2023/10/22 09:04:19;;;;;;;3.80;1.87;;;14.20;99.90;;;;;;5051254;28;20205;-64
2023/10/22 09:06:45;;;;;;;1.83;1.57;;;14.30;99.90;;;;;;5029325;28;20636;-58
2023/10/22 09:09:27;;;;;;;1.83;1.70;;;14.30;99.90;;;;;;5048877;28;20221;-58
2023/10/22 09:11:56;;;;;;;2.20;1.53;;;14.30;99.90;;;;;;5049965;28;20845;-59
2023/10/22 09:14:23;;;;;;;3.43;1.70;;;14.30;99.90;;;;;;5048026;28;20555;-59
2023/10/22 09:16:49;;;;;;;1.70;1.60;;;14.30;99.90;;;;;;5052118;28;20208;-59
2023/10/22 09:19:37;;;;;;;2.80;1.57;;;14.40;99.90;;;;;;5055078;28;20893;-58
2023/10/22 09:22:07;;;;;;;2.60;1.40;;;14.50;99.90;;;;;;5065349;28;20259;-59
2023/10/22 09:24:36;;;;;;;1.60;1.50;;;14.50;99.90;;;;;;5062768;28;20201;-71
2023/10/22 09:27:02;;;;;;;2.00;1.43;;;14.60;99.90;;;;;;5038407;28;20288;-68
2023/10/22 09:29:28;;;;;;;5.30;1.77;;;14.60;99.90;;;;;;5054085;28;20289;-61
2023/10/22 09:31:55;;;;;;;2.87;1.40;;;14.60;99.90;;;;;;5033867;28;20322;-57
2023/10/22 09:34:32;;;;;;;2.03;1.53;;;14.50;99.90;;;;;;5055767;28;20765;-63
2023/10/22 09:36:58;;;;;;;1.50;1.40;;;14.50;99.90;;;;;;5051016;28;20231;-60
2023/10/22 09:39:40;;;;;;;1.23;1.03;;;14.50;99.90;;;;;;5060222;28;20201;-66
2023/10/22 09:42:07;;;;;;;2.13;1.33;;;14.60;99.90;;;;;;5053725;28;20329;-60
2023/10/22 09:44:33;;;;;;;1.30;1.17;;;14.60;99.90;;;;;;5051201;28;20206;-69
2023/10/22 09:47:03;;;;;;;4.17;2.00;;;14.60;99.90;;;;;;5037255;28;20441;-70
2023/10/22 09:49:33;;;;;;;3.30;1.60;;;14.60;99.90;;;;;;5056459;28;20766;-61
2023/10/22 09:52:00;;;;;;;3.53;1.80;;;14.70;99.90;;;;;;5054479;28;20205;-60
2023/10/22 09:54:40;;;;;;;2.30;1.87;;;14.80;99.90;;;;;;5067585;28;20286;-59
2023/10/22 09:57:18;;;;;;;2.20;2.03;;;14.70;99.90;;;;;;5061330;28;20217;-58
2023/10/22 09:59:45;;;;;;;2.20;1.60;;;14.70;99.90;;;;;;5052846;28;20198;-57
2023/10/22 10:02:13;;;;;;;4.07;1.80;;;14.80;99.90;;;;;;5065567;28;20671;-57
2023/10/22 10:04:40;;;;;;;1.73;1.30;;;14.90;99.90;;;;;;5062858;28;20202;-57
2023/10/22 10:07:06;;;;;;;3.33;2.00;;;14.90;99.90;;;;;;5055221;28;20202;-58
2023/10/22 10:09:34;;;;;;;2.30;1.50;;;15.00;99.90;;;;;;5062441;28;20224;-58
2023/10/22 10:12:02;;;;;;;1.80;1.47;;;15.10;99.90;;;;;;5052418;28;20217;-59
2023/10/22 10:14:38;;;;;;;2.80;1.97;;;15.00;99.90;;;;;;5054865;28;20194;-58
2023/10/22 10:17:04;;;;;;;1.40;1.30;;;14.90;99.90;;;;;;5052946;28;20699;-59
2023/10/22 10:19:30;;;;;;;1.53;1.20;;;15.10;99.90;;;;;;5033608;28;20210;-61
2023/10/22 10:21:56;;;;;;;1.77;1.43;;;15.10;99.90;;;;;;5034193;28;20305;-61
2023/10/22 10:24:26;;;;;;;2.70;1.93;;;15.00;99.90;;;;;;5015672;28;20195;-61
2023/10/22 10:26:58;;;;;;;2.13;1.67;;;15.10;99.90;;;;;;5031996;28;20229;-70
2023/10/22 10:29:34;;;;;;;2.30;1.37;;;15.10;99.90;;;;;;5014850;28;20638;-60
2023/10/22 10:32:20;;;;;;;3.30;1.43;;;15.00;99.90;;;;;;5059381;23;20236;-60
2023/10/22 10:34:49;;;;;;;2.87;1.40;;;15.00;99.90;;;;;;5020055;28;20210;-63
2023/10/22 10:37:17;;;;;;;2.70;1.60;;;15.00;99.90;;;;;;5035294;28;20322;-60
2023/10/22 10:39:45;;;;;;;4.83;1.37;;;15.10;99.90;;;;;;5034401;28;20202;-61
2023/10/22 10:42:12;;;;;;;3.80;1.50;;;15.00;99.90;;;;;;5032082;28;20286;-60
2023/10/22 10:44:59;;;;;;;3.60;1.93;;;15.20;99.90;;;;;;5031050;28;20199;-60
2023/10/22 10:47:24;;;;;;;1.43;1.17;;;15.30;99.90;;;;;;5031848;28;20219;-61
2023/10/22 10:50:12;;;;;;;3.07;1.63;;;15.30;99.90;;;;;;5038475;28;20291;-61
2023/10/22 10:52:38;;;;;;;1.20;1.10;;;15.50;99.90;;;;;;5002316;28;20210;-60
2023/10/22 10:55:18;;;;;;;5.40;1.53;;;15.60;99.90;;;;;;5014838;28;20195;-61
2023/10/22 10:57:53;;;;;;;3.97;0.97;;;15.50;99.90;;;;;;5017353;28;20225;-61
2023/10/22 11:00:28;;;;;;;2.67;1.50;;;15.50;99.90;;;;;;5017815;28;20636;-61
2023/10/22 11:02:55;;;;;;;3.53;1.27;;;15.80;99.90;;;;;;5009186;28;20580;-61
2023/10/22 11:05:42;;;;;;;5.63;1.30;;;15.90;99.90;;;;;;5020830;28;20195;-61
2023/10/22 11:08:18;;;;;;;4.27;1.07;;;15.80;99.90;;;;;;5017461;28;20636;-60
2023/10/22 11:10:46;;;;;;;3.03;1.00;;;15.90;99.90;;;;;;5020102;28;20680;-61
2023/10/22 11:13:13;;;;;;;3.23;1.10;;;15.80;99.90;;;;;;5024547;28;20205;-61
2023/10/22 11:15:40;;;;;;;3.20;1.10;;;16.00;99.90;;;;;;5024792;28;20195;-61
2023/10/22 11:18:08;;;;;;;3.60;1.20;;;16.00;99.90;;;;;;5008612;28;20199;-61
2023/10/22 11:20:34;;;;;;;3.03;1.10;;;16.10;99.90;;;;;;5026210;28;20217;-61
2023/10/22 11:23:00;;;;;;;4.40;1.37;;;16.30;99.90;;;;;;5023775;28;20199;-61
2023/10/22 11:25:27;;;;;;;2.00;1.20;;;16.40;99.90;;;;;;5023357;28;20453;-60
2023/10/22 11:27:53;;;;;;;3.37;1.43;;;16.70;99.90;;;;;;5023443;28;21040;-61
2023/10/22 11:30:40;;;;;;;1.47;0.90;;;16.40;99.90;;;;;;5022716;28;20242;-61
2023/10/22 11:33:07;;;;;;;1.77;0.87;;;16.40;99.90;;;;;;5020751;28;20203;-61
2023/10/22 11:35:33;;;;;;;2.23;1.30;;;16.50;99.90;;;;;;5021262;28;20280;-60
2023/10/22 11:37:59;;;;;;;4.70;1.20;;;16.70;99.90;;;;;;5023254;28;20199;-61
2023/10/22 11:40:27;;;;;;;1.80;0.97;;;17.00;99.90;;;;;;5025257;28;20875;-62
2023/10/22 11:42:53;;;;;;;2.03;1.07;;;17.00;99.90;;;;;;5016921;28;20250;-60
2023/10/22 11:45:19;;;;;;;4.67;1.10;;;17.40;99.90;;;;;;5015460;28;20289;-61
2023/10/22 11:47:45;;;;;;;1.67;1.03;;;17.20;99.90;;;;;;5018499;28;20643;-61
2023/10/22 11:50:13;;;;;;;2.20;0.90;;;17.40;99.90;;;;;;4999899;28;20398;-60
2023/10/22 11:52:51;;;;;;;2.50;1.27;;;18.00;99.90;;;;;;5022737;28;20232;-61
2023/10/22 11:55:18;;;;;;;1.43;0.90;;;18.00;99.90;;;;;;5020573;28;20428;-62
2023/10/22 11:57:45;;;;;;;1.33;0.87;;;18.20;99.90;;;;;;5020880;28;20820;-61
2023/10/22 12:00:11;;;;;;;1.00;0.90;;;18.30;99.90;;;;;;5021063;28;20238;-60
2023/10/22 12:02:38;;;;;;;1.57;0.93;;;18.70;99.90;;;;;;5018219;28;20264;-61
2023/10/22 12:05:05;;;;;;;2.83;1.40;;;18.70;99.90;;;;;;5020098;28;20255;-62
2023/10/22 12:07:30;;;;;;;4.33;1.27;;;19.00;99.90;;;;;;5022623;28;20195;-62
2023/10/22 12:09:57;;;;;;;2.53;1.00;;;18.40;99.90;;;;;;5027399;28;20225;-61
2023/10/22 12:12:23;;;;;;;1.60;0.70;;;18.10;99.90;;;;;;5026056;28;20755;-62
2023/10/22 12:14:49;;;;;;;1.40;1.10;;;18.30;99.90;;;;;;5024139;28;20195;-62
2023/10/22 12:17:15;;;;;;;0.60;0.60;;;19.20;99.90;;;;;;5023821;28;20676;-61
2023/10/22 12:19:41;;;;;;;2.23;1.10;;;19.70;99.90;;;;;;5024328;28;20203;-60
2023/10/22 12:22:07;;;;;;;2.37;1.13;;;19.50;99.50;;;;;;5021752;28;20210;-61
2023/10/22 12:24:32;;;;;;;1.27;0.63;;;18.40;99.90;;;;;;5018304;28;20280;-62
2023/10/22 12:26:58;;;;;;;0.93;0.90;;;17.70;99.90;;;;;;5019921;28;20252;-61
2023/10/22 12:29:25;;;;;;;2.23;0.67;;;17.60;99.90;;;;;;5017207;28;20220;-61
2023/10/22 12:31:50;;;;;;;1.43;0.97;;;18.30;99.90;;;;;;5015911;28;20236;-61
2023/10/22 12:34:16;;;;;;;0.80;0.80;;;18.50;99.90;;;;;;5011724;28;20900;-62
2023/10/22 12:36:41;;;;;;;4.33;1.23;;;18.60;99.90;;;;;;5011712;28;20203;-61
2023/10/22 12:39:07;;;;;;;2.07;0.70;;;19.60;99.90;;;;;;5011012;28;20209;-61
2023/10/22 12:41:34;;;;;;;2.80;1.20;;;20.30;99.00;;;;;;5011774;28;20312;-61
2023/10/22 12:44:00;;;;;;;2.60;1.10;;;20.40;98.50;;;;;;5012601;28;20219;-69